Time,TemperatureF,DewpointF,PressureIn,WindDirection,WindDirectionDegrees,WindSpeedMPH,WindSpeedGustMPH,Humidity,HourlyPrecipIn,Conditions,Clouds,dailyrainin,SoftwareType,DateUTC
2013-03-03 00:00:00,30.1,23.4,29.99,NNW,331,0.0,28.0,76,0.00,,,0.00,Wunderground v.1.15,2013-03-03 06:00:00,
2013-03-03 00:05:00,29.8,23.2,29.99,NNW,331,0.0,28.0,76,0.00,,,0.00,Wunderground v.1.15,2013-03-03 06:05:00,
2013-03-03 00:15:00,29.8,23.5,29.99,NNW,331,0.0,28.0,77,0.00,,,0.00,Wunderground v.1.15,2013-03-03 06:15:00,
2013-03-03 00:20:00,29.7,23.4,29.99,NNW,331,0.0,28.0,77,0.00,,,0.00,Wunderground v.1.15,2013-03-03 06:20:00,
2013-03-03 00:25:00,29.6,23.6,29.99,NNW,331,0.0,28.0,78,0.00,,,0.00,Wunderground v.1.15,2013-03-03 06:25:00,
2013-03-03 00:30:00,29.5,23.5,29.99,NNW,331,0.0,28.0,78,0.00,,,0.00,Wunderground v.1.15,2013-03-03 06:30:00,
2013-03-03 00:35:00,29.4,23.7,29.99,NNW,331,0.0,28.0,79,0.00,,,0.00,Wunderground v.1.15,2013-03-03 06:35:00,
2013-03-03 00:45:00,29.3,23.9,29.99,NNW,331,0.0,28.0,80,0.00,,,0.00,Wunderground v.1.15,2013-03-03 06:45:00,
2013-03-03 00:55:00,29.3,23.9,29.99,NNW,331,0.0,28.0,80,0.00,,,0.00,Wunderground v.1.15,2013-03-03 06:55:00,
2013-03-03 01:00:00,29.1,23.7,29.99,NNW,331,0.0,28.0,80,0.00,,,0.00,Wunderground v.1.15,2013-03-03 07:00:00,
2013-03-03 01:05:00,28.9,23.5,29.99,NNW,331,0.0,28.0,80,0.00,,,0.00,Wunderground v.1.15,2013-03-03 07:05:00,
2013-03-03 01:10:00,28.7,23.6,29.99,NNW,331,0.0,28.0,81,0.00,,,0.00,Wunderground v.1.15,2013-03-03 07:10:00,
2013-03-03 01:20:00,28.5,23.4,29.99,NNW,331,0.0,28.0,81,0.00,,,0.00,Wunderground v.1.15,2013-03-03 07:20:00,
2013-03-03 01:25:00,28.4,23.3,29.98,NNW,331,0.0,28.0,81,0.00,,,0.00,Wunderground v.1.15,2013-03-03 07:25:00,
2013-03-03 01:30:00,28.3,23.5,29.98,NNW,331,0.0,28.0,82,0.00,,,0.00,Wunderground v.1.15,2013-03-03 07:30:00,
2013-03-03 01:35:00,28.3,23.5,29.98,NNW,331,0.0,28.0,82,0.00,,,0.00,Wunderground v.1.15,2013-03-03 07:35:00,
2013-03-03 01:40:00,28.2,23.4,29.98,NNW,331,0.0,28.0,82,0.00,,,0.00,Wunderground v.1.15,2013-03-03 07:40:00,
2013-03-03 01:50:00,28.1,23.6,29.98,NNW,331,0.0,28.0,83,0.00,,,0.00,Wunderground v.1.15,2013-03-03 07:50:00,
2013-03-03 02:00:00,28.1,23.6,29.98,NNW,331,0.0,28.0,83,0.00,,,0.00,Wunderground v.1.15,2013-03-03 08:00:00,
2013-03-03 02:05:00,27.9,23.4,29.98,NNW,331,0.0,28.0,83,0.00,,,0.00,Wunderground v.1.15,2013-03-03 08:05:00,
2013-03-03 02:10:00,27.8,23.3,29.97,NNW,331,0.0,28.0,83,0.00,,,0.00,Wunderground v.1.15,2013-03-03 08:10:00,
2013-03-03 02:15:00,27.6,23.1,29.97,NNW,331,0.0,28.0,83,0.00,,,0.00,Wunderground v.1.15,2013-03-03 08:15:00,
2013-03-03 02:20:00,27.5,23.3,29.97,NNW,331,0.0,28.0,84,0.00,,,0.00,Wunderground v.1.15,2013-03-03 08:20:00,
2013-03-03 02:25:00,27.5,23.3,29.97,NNW,331,0.0,28.0,84,0.00,,,0.00,Wunderground v.1.15,2013-03-03 08:25:00,
2013-03-03 02:30:00,27.5,23.3,29.97,NNW,331,0.0,28.0,84,0.00,,,0.00,Wunderground v.1.15,2013-03-03 08:30:00,
2013-03-03 02:35:00,27.4,23.2,29.97,NNW,331,0.0,28.0,84,0.00,,,0.00,Wunderground v.1.15,2013-03-03 08:35:00,
2013-03-03 02:40:00,27.3,23.1,29.97,NNW,331,0.0,28.0,84,0.00,,,0.00,Wunderground v.1.15,2013-03-03 08:40:00,
2013-03-03 02:45:00,27.2,23.0,29.97,NNW,331,0.0,28.0,84,0.00,,,0.00,Wunderground v.1.15,2013-03-03 08:45:00,
2013-03-03 02:55:00,27.0,23.1,29.98,NNW,331,0.0,28.0,85,0.00,,,0.00,Wunderground v.1.15,2013-03-03 08:55:00,
2013-03-03 03:00:00,26.9,23.0,29.98,NNW,331,0.0,28.0,85,0.00,,,0.00,Wunderground v.1.15,2013-03-03 09:00:00,
2013-03-03 03:05:00,26.7,22.8,29.98,NNW,331,0.0,28.0,85,0.00,,,0.00,Wunderground v.1.15,2013-03-03 09:05:00,
2013-03-03 03:10:00,26.8,22.9,29.97,NNW,331,0.0,28.0,85,0.00,,,0.00,Wunderground v.1.15,2013-03-03 09:10:00,
2013-03-03 03:15:00,26.7,23.1,29.97,NNW,331,0.0,28.0,86,0.00,,,0.00,Wunderground v.1.15,2013-03-03 09:15:00,
2013-03-03 03:20:00,26.8,23.2,29.97,NNW,331,0.0,28.0,86,0.00,,,0.00,Wunderground v.1.15,2013-03-03 09:20:00,
2013-03-03 03:25:00,26.8,23.2,29.98,NNW,331,0.0,28.0,86,0.00,,,0.00,Wunderground v.1.15,2013-03-03 09:25:00,
2013-03-03 03:35:00,26.9,23.3,29.98,NNW,331,0.0,28.0,86,0.00,,,0.00,Wunderground v.1.15,2013-03-03 09:35:00,
2013-03-03 03:40:00,26.8,23.4,29.97,NNW,331,0.0,28.0,87,0.00,,,0.00,Wunderground v.1.15,2013-03-03 09:40:00,
2013-03-03 03:45:00,26.8,23.4,29.97,NNW,331,0.0,28.0,87,0.00,,,0.00,Wunderground v.1.15,2013-03-03 09:45:00,
2013-03-03 03:50:00,26.9,23.5,29.97,NNW,331,0.0,28.0,87,0.00,,,0.00,Wunderground v.1.15,2013-03-03 09:50:00,
2013-03-03 04:00:00,26.7,23.4,29.97,NNW,331,0.0,28.0,87,0.00,,,0.00,Wunderground v.1.15,2013-03-03 10:00:00,
2013-03-03 04:10:00,26.7,23.4,29.97,NNW,331,0.0,28.0,87,0.00,,,0.00,Wunderground v.1.15,2013-03-03 10:10:00,
2013-03-03 04:15:00,26.6,23.3,29.97,NNW,330,0.0,28.0,87,0.00,,,0.00,Wunderground v.1.15,2013-03-03 10:15:00,
2013-03-03 04:20:00,26.5,23.2,29.97,NNW,331,0.0,28.0,87,0.00,,,0.00,Wunderground v.1.15,2013-03-03 10:20:00,
2013-03-03 04:25:00,26.3,23.0,29.97,NNW,331,0.0,28.0,87,0.00,,,0.00,Wunderground v.1.15,2013-03-03 10:25:00,
2013-03-03 04:30:00,26.3,23.0,29.97,NNW,331,0.0,28.0,87,0.00,,,0.00,Wunderground v.1.15,2013-03-03 10:30:00,
2013-03-03 04:35:00,26.2,22.9,29.97,NNW,331,0.0,28.0,87,0.00,,,0.00,Wunderground v.1.15,2013-03-03 10:35:00,
2013-03-03 04:45:00,26.2,23.1,29.97,NNW,331,0.0,28.0,88,0.00,,,0.00,Wunderground v.1.15,2013-03-03 10:45:00,
2013-03-03 04:50:00,26.2,23.1,29.97,NNW,331,0.0,28.0,88,0.00,,,0.00,Wunderground v.1.15,2013-03-03 10:50:00,
2013-03-03 05:00:00,26.2,23.1,29.97,NNW,331,0.0,28.0,88,0.00,,,0.00,Wunderground v.1.15,2013-03-03 11:00:00,
2013-03-03 05:05:00,26.1,23.0,29.97,NNW,331,0.0,28.0,88,0.00,,,0.00,Wunderground v.1.15,2013-03-03 11:05:00,
2013-03-03 05:10:00,26.2,23.1,29.96,NNW,331,0.0,28.0,88,0.00,,,0.00,Wunderground v.1.15,2013-03-03 11:10:00,
2013-03-03 05:20:00,26.0,22.9,29.96,NNW,331,0.0,28.0,88,0.00,,,0.00,Wunderground v.1.15,2013-03-03 11:20:00,
2013-03-03 05:25:00,26.0,22.9,29.96,NNW,331,0.0,28.0,88,0.00,,,0.00,Wunderground v.1.15,2013-03-03 11:25:00,
2013-03-03 05:30:00,25.8,22.7,29.96,NNW,331,0.0,28.0,88,0.00,,,0.00,Wunderground v.1.15,2013-03-03 11:30:00,
2013-03-03 05:35:00,25.7,22.9,29.96,NNW,331,0.0,28.0,89,0.00,,,0.00,Wunderground v.1.15,2013-03-03 11:35:00,
2013-03-03 05:40:00,25.6,22.8,29.97,NNW,331,0.0,28.0,89,0.00,,,0.00,Wunderground v.1.15,2013-03-03 11:40:00,
2013-03-03 05:50:00,25.5,22.7,29.97,NNW,331,0.0,28.0,89,0.00,,,0.00,Wunderground v.1.15,2013-03-03 11:50:00,
2013-03-03 05:55:00,25.5,22.7,29.97,NNW,331,0.0,28.0,89,0.00,,,0.00,Wunderground v.1.15,2013-03-03 11:55:00,
2013-03-03 06:00:00,25.4,22.6,29.97,NNW,331,0.0,28.0,89,0.00,,,0.00,Wunderground v.1.15,2013-03-03 12:00:00,
2013-03-03 06:05:00,25.3,22.5,29.97,NNW,331,0.0,28.0,89,0.00,,,0.00,Wunderground v.1.15,2013-03-03 12:05:00,
2013-03-03 06:10:00,25.3,22.5,29.97,NNW,330,0.0,28.0,89,0.00,,,0.00,Wunderground v.1.15,2013-03-03 12:10:00,
2013-03-03 06:15:00,25.2,22.4,29.97,NNW,331,0.0,28.0,89,0.00,,,0.00,Wunderground v.1.15,2013-03-03 12:15:00,
2013-03-03 06:25:00,25.1,22.3,29.97,NNW,331,0.0,28.0,89,0.00,,,0.00,Wunderground v.1.15,2013-03-03 12:25:00,
2013-03-03 06:30:00,25.1,22.3,29.97,NNW,331,0.0,28.0,89,0.00,,,0.00,Wunderground v.1.15,2013-03-03 12:30:00,
2013-03-03 06:35:00,25.1,22.3,29.97,NNW,331,0.0,28.0,89,0.00,,,0.00,Wunderground v.1.15,2013-03-03 12:35:00,
2013-03-03 06:45:00,25.4,22.6,29.97,NNW,331,0.0,28.0,89,0.00,,,0.00,Wunderground v.1.15,2013-03-03 12:45:00,
2013-03-03 06:50:00,25.8,23.3,29.97,NNW,331,0.0,28.0,90,0.00,,,0.00,Wunderground v.1.15,2013-03-03 12:50:00,
2013-03-03 06:55:00,26.2,23.7,29.97,NNW,331,0.0,28.0,90,0.00,,,0.00,Wunderground v.1.15,2013-03-03 12:55:00,
2013-03-03 07:00:00,26.7,24.2,29.97,NNW,331,0.0,28.0,90,0.00,,,0.00,Wunderground v.1.15,2013-03-03 13:00:00,
2013-03-03 07:05:00,27.3,24.8,29.97,NNW,331,0.0,28.0,90,0.00,,,0.00,Wunderground v.1.15,2013-03-03 13:05:00,
2013-03-03 07:10:00,27.8,25.0,29.97,NNW,331,0.0,28.0,89,0.00,,,0.00,Wunderground v.1.15,2013-03-03 13:10:00,
2013-03-03 07:15:00,28.2,25.4,29.97,NNW,331,0.0,28.0,89,0.00,,,0.00,Wunderground v.1.15,2013-03-03 13:15:00,
2013-03-03 07:20:00,28.3,25.2,29.97,NNW,330,0.0,28.0,88,0.00,,,0.00,Wunderground v.1.15,2013-03-03 13:20:00,
2013-03-03 07:25:00,28.5,25.1,29.98,NNW,331,0.0,28.0,87,0.00,,,0.00,Wunderground v.1.15,2013-03-03 13:25:00,
2013-03-03 07:35:00,29.1,25.4,29.98,NNW,331,0.0,28.0,86,0.00,,,0.00,Wunderground v.1.15,2013-03-03 13:35:00,
2013-03-03 07:40:00,29.7,26.0,29.99,NNW,331,0.0,28.0,86,0.00,,,0.00,Wunderground v.1.15,2013-03-03 13:40:00,
2013-03-03 07:50:00,31.2,27.2,29.99,NNW,331,0.0,28.0,85,0.00,,,0.00,Wunderground v.1.15,2013-03-03 13:50:00,
2013-03-03 07:55:00,31.6,27.0,30.00,NNW,331,0.0,28.0,83,0.00,,,0.00,Wunderground v.1.15,2013-03-03 13:55:00,
2013-03-03 08:00:00,32.1,27.5,30.00,NNW,331,0.0,28.0,83,0.00,,,0.00,Wunderground v.1.15,2013-03-03 14:00:00,
2013-03-03 08:10:00,33.3,28.1,30.00,NNW,331,0.0,28.0,81,0.00,,,0.00,Wunderground v.1.15,2013-03-03 14:10:00,
2013-03-03 08:15:00,34.1,28.6,30.00,NNW,331,0.0,28.0,80,0.00,,,0.00,Wunderground v.1.15,2013-03-03 14:15:00,
2013-03-03 08:20:00,34.8,28.3,30.00,NNW,331,0.0,28.0,77,0.00,,,0.00,Wunderground v.1.15,2013-03-03 14:20:00,
2013-03-03 08:25:00,35.4,27.6,29.99,NNW,331,0.0,28.0,73,0.00,,,0.00,Wunderground v.1.15,2013-03-03 14:25:00,
2013-03-03 08:30:00,36.3,27.4,29.99,NNW,330,0.0,28.0,70,0.00,,,0.00,Wunderground v.1.15,2013-03-03 14:30:00,
2013-03-03 08:40:00,37.2,25.8,29.99,NNW,331,0.0,28.0,63,0.00,,,0.00,Wunderground v.1.15,2013-03-03 14:40:00,
2013-03-03 08:45:00,37.7,25.8,29.99,NNW,331,0.0,28.0,62,0.00,,,0.00,Wunderground v.1.15,2013-03-03 14:45:00,
2013-03-03 08:55:00,37.3,25.1,29.99,West,273,0.0,28.0,61,0.00,,,0.00,Wunderground v.1.15,2013-03-03 14:55:00,
2013-03-03 09:00:00,37.1,24.1,29.99,WSW,238,1.0,1.0,59,0.00,,,0.00,Wunderground v.1.15,2013-03-03 15:00:00,
2013-03-03 09:05:00,37.7,24.6,29.99,SW,221,1.0,28.0,59,0.00,,,0.00,Wunderground v.1.15,2013-03-03 15:05:00,
2013-03-03 09:15:00,37.4,24.0,29.99,SSW,195,1.0,28.0,58,0.00,,,0.00,Wunderground v.1.15,2013-03-03 15:15:00,
2013-03-03 09:20:00,38.2,24.3,29.99,SSW,192,0.0,28.0,57,0.00,,,0.00,Wunderground v.1.15,2013-03-03 15:20:00,
2013-03-03 09:25:00,38.5,24.1,29.99,WSW,244,2.0,28.0,56,0.00,,,0.00,Wunderground v.1.15,2013-03-03 15:25:00,
2013-03-03 09:30:00,38.6,23.8,29.99,WSW,243,2.0,2.0,55,0.00,,,0.00,Wunderground v.1.15,2013-03-03 15:30:00,
2013-03-03 09:35:00,38.7,24.3,29.99,SW,232,1.0,28.0,56,0.00,,,0.00,Wunderground v.1.15,2013-03-03 15:35:00,
2013-03-03 09:40:00,38.8,24.0,29.99,SW,232,1.0,1.0,55,0.00,,,0.00,Wunderground v.1.15,2013-03-03 15:40:00,
2013-03-03 09:50:00,39.5,24.2,29.99,South,184,2.0,2.0,54,0.00,,,0.00,Wunderground v.1.15,2013-03-03 15:50:00,
2013-03-03 10:00:00,39.3,24.5,29.99,SW,229,3.0,28.0,55,0.00,,,0.00,Wunderground v.1.15,2013-03-03 16:00:00,
2013-03-03 10:05:00,40.1,23.9,29.99,WSW,245,3.0,28.0,52,0.00,,,0.00,Wunderground v.1.15,2013-03-03 16:05:00,
2013-03-03 10:10:00,40.7,24.9,29.99,WSW,245,2.0,2.0,53,0.00,,,0.00,Wunderground v.1.15,2013-03-03 16:10:00,
2013-03-03 10:15:00,41.6,25.3,29.99,SW,215,1.0,28.0,52,0.00,,,0.00,Wunderground v.1.15,2013-03-03 16:15:00,
2013-03-03 10:25:00,41.8,24.0,29.99,West,275,5.0,28.0,49,0.00,,,0.00,Wunderground v.1.15,2013-03-03 16:25:00,
2013-03-03 10:30:00,39.9,23.7,29.99,West,277,3.0,3.0,52,0.00,,,0.00,Wunderground v.1.15,2013-03-03 16:30:00,
2013-03-03 10:35:00,41.0,24.7,29.99,SW,227,2.0,5.0,52,0.00,,,0.00,Wunderground v.1.15,2013-03-03 16:35:00,
2013-03-03 10:40:00,41.8,24.0,29.99,NW,313,3.0,28.0,49,0.00,,,0.00,Wunderground v.1.15,2013-03-03 16:40:00,
2013-03-03 10:45:00,41.6,23.3,29.99,WNW,283,5.0,28.0,48,0.00,,,0.00,Wunderground v.1.15,2013-03-03 16:45:00,
2013-03-03 10:55:00,41.9,23.6,29.99,WNW,294,7.0,28.0,48,0.00,,,0.00,Wunderground v.1.15,2013-03-03 16:55:00,
2013-03-03 11:05:00,41.6,23.8,29.99,WNW,292,7.0,28.0,49,0.00,,,0.00,Wunderground v.1.15,2013-03-03 17:05:00,
2013-03-03 11:10:00,41.7,24.4,29.99,West,279,8.0,8.0,50,0.00,,,0.00,Wunderground v.1.15,2013-03-03 17:10:00,
2013-03-03 11:15:00,41.6,24.3,29.99,WNW,300,6.0,28.0,50,0.00,,,0.00,Wunderground v.1.15,2013-03-03 17:15:00,
2013-03-03 11:20:00,41.5,24.2,29.99,WNW,283,7.0,7.0,50,0.00,,,0.00,Wunderground v.1.15,2013-03-03 17:20:00,
2013-03-03 11:30:00,41.8,24.5,29.98,WSW,243,6.0,6.0,50,0.00,,,0.00,Wunderground v.1.15,2013-03-03 17:30:00,
2013-03-03 11:35:00,43.0,25.1,29.98,WSW,257,5.0,8.0,49,0.00,,,0.00,Wunderground v.1.15,2013-03-03 17:35:00,
2013-03-03 11:40:00,42.8,24.9,29.98,West,261,7.0,7.0,49,0.00,,,0.00,Wunderground v.1.15,2013-03-03 17:40:00,
2013-03-03 11:45:00,42.7,25.3,29.98,West,277,8.0,8.0,50,0.00,,,0.00,Wunderground v.1.15,2013-03-03 17:45:00,
2013-03-03 11:50:00,42.8,25.4,29.98,WNW,283,5.0,5.0,50,0.00,,,0.00,Wunderground v.1.15,2013-03-03 17:50:00,
2013-03-03 12:00:00,43.4,25.0,29.97,WNW,301,5.0,5.0,48,0.00,,,0.00,Wunderground v.1.15,2013-03-03 18:00:00,
2013-03-03 12:10:00,43.8,24.3,29.96,WNW,290,5.0,5.0,46,0.00,,,0.00,Wunderground v.1.15,2013-03-03 18:10:00,
2013-03-03 12:15:00,44.3,24.8,29.96,WNW,282,5.0,28.0,46,0.00,,,0.00,Wunderground v.1.15,2013-03-03 18:15:00,
2013-03-03 12:20:00,44.6,24.5,29.96,WNW,303,4.0,28.0,45,0.00,,,0.00,Wunderground v.1.15,2013-03-03 18:20:00,
2013-03-03 12:25:00,44.5,23.9,29.95,WNW,294,5.0,28.0,44,0.00,,,0.00,Wunderground v.1.15,2013-03-03 18:25:00,
2013-03-03 12:30:00,44.0,23.5,29.95,WNW,286,6.0,28.0,44,0.00,,,0.00,Wunderground v.1.15,2013-03-03 18:30:00,
2013-03-03 12:40:00,44.2,23.1,29.94,NW,312,3.0,3.0,43,0.00,,,0.00,Wunderground v.1.15,2013-03-03 18:40:00,
2013-03-03 12:45:00,44.2,23.1,29.94,NNW,337,3.0,28.0,43,0.00,,,0.00,Wunderground v.1.15,2013-03-03 18:45:00,
2013-03-03 12:50:00,44.3,23.2,29.94,NNW,333,2.0,28.0,43,0.00,,,0.00,Wunderground v.1.15,2013-03-03 18:50:00,
2013-03-03 13:00:00,45.1,23.3,29.93,WNW,292,2.0,28.0,42,0.00,,,0.00,Wunderground v.1.15,2013-03-03 19:00:00,
2013-03-03 13:05:00,45.8,23.4,29.93,WNW,301,4.0,28.0,41,0.00,,,0.00,Wunderground v.1.15,2013-03-03 19:05:00,
2013-03-03 13:15:00,45.6,23.8,29.92,WNW,298,3.0,28.0,42,0.00,,,0.00,Wunderground v.1.15,2013-03-03 19:15:00,
2013-03-03 13:20:00,45.6,23.8,29.92,NNW,337,2.0,28.0,42,0.00,,,0.00,Wunderground v.1.15,2013-03-03 19:20:00,
2013-03-03 13:25:00,45.6,23.8,29.91,WSW,250,3.0,28.0,42,0.00,,,0.00,Wunderground v.1.15,2013-03-03 19:25:00,
2013-03-03 13:30:00,46.0,24.2,29.91,NW,304,3.0,28.0,42,0.00,,,0.00,Wunderground v.1.15,2013-03-03 19:30:00,
2013-03-03 13:35:00,46.3,24.4,29.91,North,11,2.0,28.0,42,0.00,,,0.00,Wunderground v.1.15,2013-03-03 19:35:00,
2013-03-03 13:45:00,45.8,24.5,29.91,WNW,300,3.0,28.0,43,0.00,,,0.00,Wunderground v.1.15,2013-03-03 19:45:00,
2013-03-03 13:50:00,46.6,24.7,29.91,NW,306,5.0,28.0,42,0.00,,,0.00,Wunderground v.1.15,2013-03-03 19:50:00,
2013-03-03 13:55:00,46.4,24.5,29.90,WSW,249,5.0,28.0,42,0.00,,,0.00,Wunderground v.1.15,2013-03-03 19:55:00,
2013-03-03 14:05:00,47.0,24.5,29.90,WNW,288,3.0,5.0,41,0.00,,,0.00,Wunderground v.1.15,2013-03-03 20:05:00,
2013-03-03 14:10:00,47.6,25.0,29.89,SSW,203,4.0,4.0,41,0.00,,,0.00,Wunderground v.1.15,2013-03-03 20:10:00,
2013-03-03 14:20:00,46.7,24.8,29.89,SE,130,1.0,1.0,42,0.00,,,0.00,Wunderground v.1.15,2013-03-03 20:20:00,
2013-03-03 14:25:00,46.9,25.0,29.88,SE,142,0.0,28.0,42,0.00,,,0.00,Wunderground v.1.15,2013-03-03 20:25:00,
2013-03-03 14:30:00,48.1,25.5,29.88,SW,230,1.0,1.0,41,0.00,,,0.00,Wunderground v.1.15,2013-03-03 20:30:00,
2013-03-03 14:35:00,48.1,24.9,29.88,SSE,155,1.0,28.0,40,0.00,,,0.00,Wunderground v.1.15,2013-03-03 20:35:00,
2013-03-03 14:40:00,47.2,25.3,29.88,SSE,156,0.0,28.0,42,0.00,,,0.00,Wunderground v.1.15,2013-03-03 20:40:00,
2013-03-03 14:45:00,47.5,25.5,29.88,SW,219,0.0,28.0,42,0.00,,,0.00,Wunderground v.1.15,2013-03-03 20:45:00,
2013-03-03 14:55:00,49.2,25.3,29.87,WSW,240,3.0,28.0,39,0.00,,,0.00,Wunderground v.1.15,2013-03-03 20:55:00,
2013-03-03 15:00:00,49.2,25.3,29.87,WSW,242,1.0,28.0,39,0.00,,,0.00,Wunderground v.1.15,2013-03-03 21:00:00,
2013-03-03 15:10:00,49.3,24.7,29.87,WSW,241,2.0,28.0,38,0.00,,,0.00,Wunderground v.1.15,2013-03-03 21:10:00,
2013-03-03 15:15:00,49.4,24.8,29.87,WSW,248,1.0,28.0,38,0.00,,,0.00,Wunderground v.1.15,2013-03-03 21:15:00,
2013-03-03 15:20:00,48.8,24.9,29.87,WSW,248,0.0,28.0,39,0.00,,,0.00,Wunderground v.1.15,2013-03-03 21:20:00,
2013-03-03 15:25:00,49.0,25.7,29.86,SW,232,0.0,28.0,40,0.00,,,0.00,Wunderground v.1.15,2013-03-03 21:25:00,
2013-03-03 15:30:00,48.9,26.2,29.86,SW,219,2.0,28.0,41,0.00,,,0.00,Wunderground v.1.15,2013-03-03 21:30:00,
2013-03-03 15:35:00,49.2,26.5,29.86,SSW,213,3.0,28.0,41,0.00,,,0.00,Wunderground v.1.15,2013-03-03 21:35:00,
2013-03-03 15:40:00,48.9,26.2,29.86,South,175,3.0,28.0,41,0.00,,,0.00,Wunderground v.1.15,2013-03-03 21:40:00,
2013-03-03 15:45:00,48.7,25.4,29.86,South,184,3.0,28.0,40,0.00,,,0.00,Wunderground v.1.15,2013-03-03 21:45:00,
2013-03-03 15:50:00,47.6,25.6,29.86,SSE,167,2.0,28.0,42,0.00,,,0.00,Wunderground v.1.15,2013-03-03 21:50:00,
2013-03-03 16:00:00,48.2,25.6,29.85,SSW,206,3.0,28.0,41,0.00,,,0.00,Wunderground v.1.15,2013-03-03 22:00:00,
2013-03-03 16:10:00,49.0,25.7,29.85,WSW,242,2.0,28.0,40,0.00,,,0.00,Wunderground v.1.15,2013-03-03 22:10:00,
2013-03-03 16:15:00,49.2,25.9,29.85,SW,215,2.0,28.0,40,0.00,,,0.00,Wunderground v.1.15,2013-03-03 22:15:00,
2013-03-03 16:20:00,49.3,26.0,29.85,SSW,213,3.0,3.0,40,0.00,,,0.00,Wunderground v.1.15,2013-03-03 22:20:00,
2013-03-03 16:25:00,49.3,26.0,29.84,SSW,213,2.0,28.0,40,0.00,,,0.00,Wunderground v.1.15,2013-03-03 22:25:00,
2013-03-03 16:35:00,48.8,25.5,29.84,South,180,1.0,28.0,40,0.00,,,0.00,Wunderground v.1.15,2013-03-03 22:35:00,
2013-03-03 16:40:00,47.8,25.2,29.84,South,186,1.0,28.0,41,0.00,,,0.00,Wunderground v.1.15,2013-03-03 22:40:00,
2013-03-03 16:45:00,47.1,24.6,29.84,South,188,2.0,28.0,41,0.00,,,0.00,Wunderground v.1.15,2013-03-03 22:45:00,
2013-03-03 16:50:00,46.8,24.3,29.84,South,187,1.0,1.0,41,0.00,,,0.00,Wunderground v.1.15,2013-03-03 22:50:00,
2013-03-03 17:00:00,46.7,24.2,29.84,South,187,0.0,28.0,41,0.00,,,0.00,Wunderground v.1.15,2013-03-03 23:00:00,
2013-03-03 17:10:00,46.9,24.4,29.85,SSW,207,1.0,28.0,41,0.00,,,0.00,Wunderground v.1.15,2013-03-03 23:10:00,
2013-03-03 17:15:00,46.9,24.4,29.85,SSW,210,2.0,28.0,41,0.00,,,0.00,Wunderground v.1.15,2013-03-03 23:15:00,
2013-03-03 17:20:00,47.0,25.1,29.85,SSW,211,2.0,28.0,42,0.00,,,0.00,Wunderground v.1.15,2013-03-03 23:20:00,
2013-03-03 17:25:00,47.0,25.1,29.85,SSW,211,1.0,28.0,42,0.00,,,0.00,Wunderground v.1.15,2013-03-03 23:25:00,
2013-03-03 17:30:00,46.9,25.5,29.85,SSW,211,1.0,1.0,43,0.00,,,0.00,Wunderground v.1.15,2013-03-03 23:30:00,
2013-03-03 17:35:00,46.9,25.5,29.85,SSW,210,1.0,28.0,43,0.00,,,0.00,Wunderground v.1.15,2013-03-03 23:35:00,
2013-03-03 17:45:00,46.5,25.7,29.83,SSW,211,0.0,28.0,44,0.00,,,0.00,Wunderground v.1.15,2013-03-03 23:45:00,
2013-03-03 17:50:00,46.3,26.1,29.83,SSW,210,0.0,28.0,45,0.00,,,0.00,Wunderground v.1.15,2013-03-03 23:50:00,
2013-03-03 17:55:00,46.2,26.0,29.83,SSW,211,0.0,28.0,45,0.00,,,0.00,Wunderground v.1.15,2013-03-03 23:55:00,
2013-03-03 18:05:00,45.9,26.8,29.83,SSW,211,1.0,28.0,47,0.00,,,0.00,Wunderground v.1.15,2013-03-04 00:05:00,
2013-03-03 18:10:00,45.6,27.0,29.83,SSW,210,1.0,1.0,48,0.00,,,0.00,Wunderground v.1.15,2013-03-04 00:10:00,
2013-03-03 18:20:00,45.2,27.6,29.83,SSW,211,1.0,1.0,50,0.00,,,0.00,Wunderground v.1.15,2013-03-04 00:20:00,
2013-03-03 18:25:00,45.1,27.6,29.83,SSW,211,1.0,28.0,50,0.00,,,0.00,Wunderground v.1.15,2013-03-04 00:25:00,
2013-03-03 18:30:00,45.0,27.9,29.83,SSW,211,0.0,28.0,51,0.00,,,0.00,Wunderground v.1.15,2013-03-04 00:30:00,
2013-03-03 18:35:00,44.9,27.8,29.83,SSW,211,0.0,28.0,51,0.00,,,0.00,Wunderground v.1.15,2013-03-04 00:35:00,
2013-03-03 18:40:00,44.8,28.2,29.83,SSW,211,0.0,28.0,52,0.00,,,0.00,Wunderground v.1.15,2013-03-04 00:40:00,
2013-03-03 18:50:00,44.6,26.6,29.83,SSW,211,0.0,28.0,49,0.00,,,0.00,Wunderground v.1.15,2013-03-04 00:50:00,
2013-03-03 18:55:00,44.5,26.5,29.83,SSW,211,0.0,28.0,49,0.00,,,0.00,Wunderground v.1.15,2013-03-04 00:55:00,
2013-03-03 19:00:00,44.5,26.5,29.83,SSW,211,1.0,1.0,49,0.00,,,0.00,Wunderground v.1.15,2013-03-04 01:00:00,
2013-03-03 19:10:00,44.2,27.2,29.83,SSW,211,0.0,28.0,51,0.00,,,0.00,Wunderground v.1.15,2013-03-04 01:10:00,
2013-03-03 19:15:00,44.0,27.5,29.83,SSW,211,0.0,28.0,52,0.00,,,0.00,Wunderground v.1.15,2013-03-04 01:15:00,
2013-03-03 19:25:00,43.9,27.9,29.83,SSW,211,1.0,28.0,53,0.00,,,0.00,Wunderground v.1.15,2013-03-04 01:25:00,
2013-03-03 19:30:00,43.9,27.9,29.83,SSW,211,1.0,1.0,53,0.00,,,0.00,Wunderground v.1.15,2013-03-04 01:30:00,
2013-03-03 19:35:00,43.8,28.2,29.83,SSW,211,0.0,28.0,54,0.00,,,0.00,Wunderground v.1.15,2013-03-04 01:35:00,
2013-03-03 19:40:00,43.7,27.7,29.83,SSW,211,1.0,28.0,53,0.00,,,0.00,Wunderground v.1.15,2013-03-04 01:40:00,
2013-03-03 19:45:00,43.7,27.7,29.83,SSW,211,1.0,28.0,53,0.00,,,0.00,Wunderground v.1.15,2013-03-04 01:45:00,
2013-03-03 19:55:00,43.7,27.2,29.84,SSW,211,2.0,28.0,52,0.00,,,0.00,Wunderground v.1.15,2013-03-04 01:55:00,
2013-03-03 20:05:00,43.6,27.6,29.84,SSW,211,2.0,3.0,53,0.00,,,0.00,Wunderground v.1.15,2013-03-04 02:05:00,
2013-03-03 20:10:00,43.4,27.4,29.85,SSW,211,3.0,3.0,53,0.00,,,0.00,Wunderground v.1.15,2013-03-04 02:10:00,
2013-03-03 20:15:00,43.3,27.3,29.85,SSW,211,2.0,28.0,53,0.00,,,0.00,Wunderground v.1.15,2013-03-04 02:15:00,
2013-03-03 20:20:00,43.3,27.3,29.85,SSW,210,2.0,28.0,53,0.00,,,0.00,Wunderground v.1.15,2013-03-04 02:20:00,
2013-03-03 20:25:00,43.2,27.7,29.85,SSW,211,2.0,28.0,54,0.00,,,0.00,Wunderground v.1.15,2013-03-04 02:25:00,
2013-03-03 20:35:00,42.9,27.8,29.85,SSW,210,2.0,28.0,55,0.00,,,0.00,Wunderground v.1.15,2013-03-04 02:35:00,
2013-03-03 20:40:00,42.8,27.7,29.84,SSW,203,3.0,28.0,55,0.00,,,0.00,Wunderground v.1.15,2013-03-04 02:40:00,
2013-03-03 20:45:00,42.8,28.2,29.84,SSW,202,4.0,28.0,56,0.00,,,0.00,Wunderground v.1.15,2013-03-04 02:45:00,
2013-03-03 20:50:00,42.7,28.1,29.84,SSW,193,4.0,28.0,56,0.00,,,0.00,Wunderground v.1.15,2013-03-04 02:50:00,
2013-03-03 21:00:00,42.4,28.2,29.84,SSW,202,3.0,3.0,57,0.00,,,0.00,Wunderground v.1.15,2013-03-04 03:00:00,
2013-03-03 21:10:00,42.3,28.1,29.84,South,188,3.0,28.0,57,0.00,,,0.00,Wunderground v.1.15,2013-03-04 03:10:00,
2013-03-03 21:15:00,42.2,28.5,29.84,SSW,201,3.0,28.0,58,0.00,,,0.00,Wunderground v.1.15,2013-03-04 03:15:00,
2013-03-03 21:20:00,42.2,28.5,29.84,SSW,200,3.0,28.0,58,0.00,,,0.00,Wunderground v.1.15,2013-03-04 03:20:00,
2013-03-03 21:25:00,42.2,28.5,29.84,SSW,201,3.0,28.0,58,0.00,,,0.00,Wunderground v.1.15,2013-03-04 03:25:00,
2013-03-03 21:30:00,42.2,28.5,29.84,SSW,201,3.0,3.0,58,0.00,,,0.00,Wunderground v.1.15,2013-03-04 03:30:00,
2013-03-03 21:40:00,42.2,28.9,29.84,SSW,202,3.0,28.0,59,0.00,,,0.00,Wunderground v.1.15,2013-03-04 03:40:00,
2013-03-03 21:45:00,42.1,28.8,29.84,SSW,202,2.0,28.0,59,0.00,,,0.00,Wunderground v.1.15,2013-03-04 03:45:00,
2013-03-03 21:55:00,42.0,28.7,29.83,SSW,202,1.0,28.0,59,0.00,,,0.00,Wunderground v.1.15,2013-03-04 03:55:00,
2013-03-03 22:00:00,42.0,29.1,29.83,SSW,201,2.0,2.0,60,0.00,,,0.00,Wunderground v.1.15,2013-03-04 04:00:00,
2013-03-03 22:05:00,41.9,29.0,29.83,SSW,200,1.0,28.0,60,0.00,,,0.00,Wunderground v.1.15,2013-03-04 04:05:00,
2013-03-03 22:15:00,41.7,28.8,29.83,SSW,201,2.0,2.0,60,0.00,,,0.00,Wunderground v.1.15,2013-03-04 04:15:00,
2013-03-03 22:20:00,41.7,28.8,29.83,SSW,200,1.0,28.0,60,0.00,,,0.00,Wunderground v.1.15,2013-03-04 04:20:00,
2013-03-03 22:25:00,41.7,28.8,29.83,South,184,1.0,28.0,60,0.00,,,0.00,Wunderground v.1.15,2013-03-04 04:25:00,
2013-03-03 22:30:00,41.7,28.8,29.83,South,184,1.0,1.0,60,0.00,,,0.00,Wunderground v.1.15,2013-03-04 04:30:00,
2013-03-03 22:35:00,41.6,28.7,29.83,South,184,1.0,28.0,60,0.00,,,0.00,Wunderground v.1.15,2013-03-04 04:35:00,
2013-03-03 22:40:00,41.6,28.7,29.82,South,184,1.0,28.0,60,0.00,,,0.00,Wunderground v.1.15,2013-03-04 04:40:00,
2013-03-03 22:50:00,41.5,28.6,29.82,South,184,1.0,28.0,60,0.00,,,0.00,Wunderground v.1.15,2013-03-04 04:50:00,
2013-03-03 23:00:00,41.3,28.4,29.82,South,184,1.0,28.0,60,0.00,,,0.00,Wunderground v.1.15,2013-03-04 05:00:00,
2013-03-03 23:05:00,41.3,28.4,29.82,South,184,1.0,28.0,60,0.00,,,0.00,Wunderground v.1.15,2013-03-04 05:05:00,
2013-03-03 23:10:00,41.3,28.9,29.82,South,184,1.0,28.0,61,0.00,,,0.00,Wunderground v.1.15,2013-03-04 05:10:00,
2013-03-03 23:15:00,41.2,28.8,29.82,South,184,1.0,28.0,61,0.00,,,0.00,Wunderground v.1.15,2013-03-04 05:15:00,
2013-03-03 23:20:00,41.1,28.7,29.82,South,184,1.0,28.0,61,0.00,,,0.00,Wunderground v.1.15,2013-03-04 05:20:00,
2013-03-03 23:25:00,41.1,28.7,29.82,South,184,1.0,28.0,61,0.00,,,0.00,Wunderground v.1.15,2013-03-04 05:25:00,
2013-03-03 23:30:00,41.1,28.7,29.82,South,172,1.0,28.0,61,0.00,,,0.00,Wunderground v.1.15,2013-03-04 05:30:00,
2013-03-03 23:35:00,41.1,28.7,29.82,South,173,2.0,28.0,61,0.00,,,0.00,Wunderground v.1.15,2013-03-04 05:35:00,
2013-03-03 23:45:00,41.1,28.7,29.82,South,173,2.0,28.0,61,0.00,,,0.00,Wunderground v.1.15,2013-03-04 05:45:00,
2013-03-03 23:50:00,41.1,28.7,29.82,SE,138,3.0,3.0,61,0.00,,,0.00,Wunderground v.1.15,2013-03-04 05:50:00,